Latest Coastal Weather Observations for Adele Island

IDW60701

Issued at 7:15 am WST Thursday 23 October 2014 (issued every 10 minutes, with the page automatically refreshed every 10 minutes)

About coastal observations | Map of coastal stations | Coastal observations for WA | Marine services | Other Formats
Station Details ID: 200735 Name: ADELE ISLAND Lat: -15.51 Lon: 123.16 Height: 4.6 m
Data from the previous 72 hours. | See also: Recent months for locations in Western Australia
Date/Time
WST
Temp

°C
Wind Pressure Rain
since 9am
mm
Weather Cloud Vis
km
Sea
Height
m
Swell
Dir
 
Speed
knots
Gust
knots
hPa Trend Height
m
Period
s
Dir
23/07:00am 27.1 NNW 7 9 1013.3 - - - - - - - - -
23/06:30am 27.0 N 8 9 1012.8 - - - - - - - - -
23/06:00am 26.6 NNW 7 8 1012.5 - - - - - - - - -
23/05:30am 26.5 NNW 7 9 1011.9 - - - - - - - - -
23/05:00am 26.6 NNW 9 10 1011.7 - - - - - - - - -
23/04:30am 26.6 NNW 9 11 1011.4 - - - - - - - - -
23/04:00am 26.5 NNW 8 10 1011.2 - - - - - - - - -
23/03:30am 26.7 NNW 9 11 1011.0 - - - - - - - - -
23/03:00am 26.7 NNW 9 11 1010.9 - - - - - - - - -
23/02:30am 26.8 NNW 7 8 1011.3 - - - - - - - - -
23/02:00am 26.8 NNW 7 8 1011.6 - - - - - - - - -
23/01:30am 27.0 NNW 7 8 1011.9 - - - - - - - - -
23/01:00am 27.0 NW 8 10 1012.0 - - - - - - - - -
23/12:30am 27.0 NW 9 11 1012.4 - - - - - - - - -
23/12:00am 27.1 NW 9 12 1012.6 - - - - - - - - -
 
Date/Time
WST
Temp

°C
Wind Pressure Rain
since 9am
mm
Weather Cloud Vis
km
Sea
Height
m
Swell
Dir
 
Speed
knots
Gust
knots
hPa Trend Height
m
Period
s
Dir
22/11:30pm 27.3 NW 10 11 1012.8 - - - - - - - - -
22/11:00pm 27.2 NW 10 11 1013.0 - - - - - - - - -
22/10:30pm 27.3 NW 10 11 1013.2 - - - - - - - - -
22/10:00pm 27.4 NNW 11 12 1013.5 - - - - - - - - -
22/09:30pm 27.5 NW 11 13 1013.6 - - - - - - - - -
22/09:00pm 27.5 NNW 13 15 1013.5 - - - - - - - - -
22/08:30pm 27.4 NNW 12 14 1013.4 - - - - - - - - -
22/08:00pm 27.3 NNW 11 13 1013.2 - - - - - - - - -
22/07:30pm 27.2 NNW 10 13 1012.8 - - - - - - - - -
22/07:00pm 27.4 NNW 11 13 1012.6 - - - - - - - - -
22/06:30pm 27.1 NW 9 11 1012.2 - - - - - - - - -
22/06:00pm 27.4 NW 9 10 1011.9 - - - - - - - - -
22/05:30pm 27.6 NW 9 11 1011.6 - - - - - - - - -
22/05:00pm 28.0 NW 10 12 1011.5 - - - - - - - - -
22/04:30pm 28.2 NW 10 13 1011.3 - - - - - - - - -
22/04:00pm 28.3 NW 11 13 1011.3 - - - - - - - - -
22/03:30pm 28.4 NW 10 12 1011.5 - - - - - - - - -
22/03:00pm 28.1 N 9 11 1011.7 - - - - - - - - -
22/02:30pm 28.6 NNW 11 13 1011.5 - - - - - - - - -
22/02:00pm 28.5 NNW 10 13 1011.6 - - - - - - - - -
22/01:30pm 28.8 NW 10 12 1011.6 - - - - - - - - -
22/01:00pm 28.6 NW 9 11 1012.0 - - - - - - - - -
22/12:30pm 29.0 NW 11 13 1012.3 - - - - - - - - -
22/12:00pm 28.8 NNW 11 13 1012.6 - - - - - - - - -
22/11:30am 28.3 NNW 11 13 1013.1 - - - - - - - - -
22/11:00am 28.6 N 10 12 1013.5 - - - - - - - - -
22/10:30am 28.1 NNW 12 14 1013.6 - - - - - - - - -
22/10:00am 28.0 NNW 10 12 1013.9 - - - - - - - - -
22/09:30am 28.0 NNW 10 12 1013.9 - - - - - - - - -
22/09:00am 28.0 NNW 10 12 1014.2 - - - - - - - - -
22/08:30am 27.5 N 9 10 1014.4 - - - - - - - - -
22/08:00am 27.3 N 9 10 1014.3 - - - - - - - - -
22/07:30am 27.3 N 9 10 1013.9 - - - - - - - - -
22/07:00am 27.1 N 8 9 1013.6 - - - - - - - - -
22/06:30am 26.8 N 8 9 1013.1 - - - - - - - - -
22/06:00am 26.6 N 9 10 1012.9 - - - - - - - - -
22/05:30am 26.4 N 9 10 1012.4 - - - - - - - - -
22/05:00am 26.3 NNW 9 11 1012.1 - - - - - - - - -
22/04:30am 26.3 NNW 9 10 1011.8 - - - - - - - - -
22/04:00am 26.5 N 7 8 1012.1 - - - - - - - - -
22/03:30am 26.4 NNE 7 8 1012.2 - - - - - - - - -
22/03:00am 26.3 NNE 7 8 1012.3 - - - - - - - - -
22/02:30am 26.4 NNE 7 8 1012.3 - - - - - - - - -
22/02:00am 26.5 NE 9 10 1012.6 - - - - - - - - -
22/01:30am 26.4 NNE 3 4 1012.7 - - - - - - - - -
22/01:00am 26.0 SE 4 6 1012.7 - - - - - - - - -
22/12:30am 26.6 SW 6 8 1012.6 - - - - - - - - -
22/12:00am 26.6 SW 6 7 1012.9 - - - - - - - - -
 
Date/Time
WST
Temp

°C
Wind Pressure Rain
since 9am
mm
Weather Cloud Vis
km
Sea
Height
m
Swell
Dir
 
Speed
knots
Gust
knots
hPa Trend Height
m
Period
s
Dir
21/11:30pm 26.7 WSW 7 9 1013.1 - - - - - - - - -
21/11:00pm 26.9 WSW 8 9 1013.4 - - - - - - - - -
21/10:30pm 27.0 WSW 8 10 1013.7 - - - - - - - - -
21/10:00pm 27.0 W 9 11 1013.7 - - - - - - - - -
21/09:30pm 27.1 W 10 12 1013.8 - - - - - - - - -
21/09:00pm 27.1 W 11 14 1013.3 - - - - - - - - -
21/08:30pm 27.2 W 12 14 1013.1 - - - - - - - - -
21/08:00pm 26.9 W 11 14 1012.9 - - - - - - - - -
21/07:30pm 27.1 W 11 14 1013.1 - - - - - - - - -
21/07:00pm 27.1 W 11 13 1012.8 - - - - - - - - -
21/06:30pm 26.9 W 11 13 1012.6 - - - - - - - - -
21/06:00pm 27.1 W 11 14 1012.4 - - - - - - - - -
21/05:30pm 27.3 W 12 15 1012.3 - - - - - - - - -
21/05:00pm 27.7 W 11 14 1012.0 - - - - - - - - -
21/04:30pm 28.1 W 10 13 1011.7 - - - - - - - - -
21/04:00pm 28.3 W 10 13 1011.6 - - - - - - - - -
21/03:30pm 28.3 W 10 13 1011.7 - - - - - - - - -
21/03:00pm 28.5 W 11 14 1011.5 - - - - - - - - -
21/02:30pm 28.4 W 12 14 1011.9 - - - - - - - - -
21/02:00pm 28.7 W 12 17 1011.6 - - - - - - - - -
21/01:30pm 28.9 W 13 16 1012.1 - - - - - - - - -
21/01:00pm 29.3 WSW 12 15 1012.7 - - - - - - - - -
21/12:30pm 28.3 WSW 12 15 1013.3 - - - - - - - - -
21/12:00pm 28.5 WSW 12 14 1013.9 - - - - - - - - -
21/11:30am 28.8 WSW 13 15 1014.3 - - - - - - - - -
21/11:00am 28.6 WSW 12 15 1014.7 - - - - - - - - -
21/10:30am 28.6 W 11 14 1014.9 - - - - - - - - -
21/10:00am 28.8 W 10 13 1015.3 - - - - - - - - -
21/09:30am 28.0 W 11 13 1015.6 - - - - - - - - -
21/09:00am 28.1 W 11 14 1015.4 - - - - - - - - -
21/08:30am 27.8 WSW 12 14 1015.5 - - - - - - - - -
21/08:00am 27.7 WSW 11 13 1015.6 - - - - - - - - -
21/07:30am 27.3 WSW 11 14 1015.5 - - - - - - - - -
21/07:00am 27.0 W 9 12 1015.4 - - - - - - - - -
21/06:30am 26.6 W 9 11 1014.9 - - - - - - - - -
21/06:00am 26.2 W 8 9 1014.5 - - - - - - - - -
21/05:30am 26.1 W 8 10 1014.2 - - - - - - - - -
21/05:00am 26.1 W 7 9 1014.1 - - - - - - - - -
21/04:30am 26.1 WNW 8 10 1013.4 - - - - - - - - -
21/04:00am 26.4 WNW 9 11 1013.0 - - - - - - - - -
21/03:30am 26.4 WNW 9 11 1012.9 - - - - - - - - -
21/03:00am 26.3 WNW 9 10 1012.7 - - - - - - - - -
21/02:30am 26.3 WNW 9 10 1012.5 - - - - - - - - -
21/02:00am 26.6 NW 8 9 1012.5 - - - - - - - - -
21/01:30am 26.3 WNW 7 9 1012.6 - - - - - - - - -
21/01:00am 26.4 W 8 10 1012.5 - - - - - - - - -
21/12:30am 26.8 W 8 9 1012.8 - - - - - - - - -
21/12:00am 26.7 W 10 13 1012.8 - - - - - - - - -
 
Date/Time
WST
Temp

°C
Wind Pressure Rain
since 9am
mm
Weather Cloud Vis
km
Sea
Height
m
Swell
Dir
 
Speed
knots
Gust
knots
hPa Trend Height
m
Period
s
Dir
20/11:30pm 26.9 W 11 14 1012.9 - - - - - - - - -
20/11:00pm 26.9 W 12 15 1013.0 - - - - - - - - -
20/10:30pm 27.1 W 14 17 1013.1 - - - - - - - - -
20/10:00pm 27.1 W 15 19 1013.3 - - - - - - - - -
20/09:30pm 27.1 W 15 18 1013.5 - - - - - - - - -
20/09:00pm 27.0 WSW 15 18 1013.5 - - - - - - - - -
20/08:30pm 27.0 W 15 19 1013.3 - - - - - - - - -
20/08:00pm 27.1 W 16 19 1013.3 - - - - - - - - -
20/07:30pm 27.0 WSW 15 17 1013.1 - - - - - - - - -
20/07:00pm 27.0 W 15 18 1012.8 - - - - - - - - -
20/06:30pm 27.0 W 14 17 1012.4 - - - - - - - - -
20/06:00pm 27.0 W 12 15 1012.4 - - - - - - - - -
20/05:30pm 27.2 W 12 16 1012.1 - - - - - - - - -
20/05:00pm 27.4 W 11 14 1011.9 - - - - - - - - -
20/04:30pm 27.6 W 10 13 1011.8 - - - - - - - - -
20/04:00pm 28.0 W 11 14 1011.9 - - - - - - - - -
20/03:30pm 28.1 WSW 12 15 1011.7 - - - - - - - - -
20/03:00pm 27.9 WSW 11 13 1011.9 - - - - - - - - -
20/02:30pm 28.1 WSW 11 14 1012.2 - - - - - - - - -
20/02:00pm 28.0 WSW 11 14 1012.5 - - - - - - - - -
20/01:30pm 28.7 WSW 10 13 1012.7 - - - - - - - - -
20/01:00pm 27.8 WSW 11 13 1013.2 - - - - - - - - -
20/12:30pm 27.7 SW 11 14 1013.5 - - - - - - - - -
20/12:00pm 28.3 SW 11 14 1013.9 - - - - - - - - -
20/11:30am 28.2 SW 12 14 1014.3 - - - - - - - - -
20/11:00am 27.6 SW 11 14 1014.7 - - - - - - - - -
20/10:30am 27.6 SW 11 14 1014.9 - - - - - - - - -
20/10:00am 27.6 SSW 12 14 1015.0 - - - - - - - - -
20/09:30am 27.3 SSW 11 13 1015.5 - - - - - - - - -
20/09:00am 27.5 SSW 11 13 1015.8 - - - - - - - - -
20/08:30am 27.2 SSW 10 12 1015.8 - - - - - - - - -
20/08:00am 27.4 SSW 10 11 1015.6 - - - - - - - - -
20/07:30am 27.1 SSW 8 10 1015.5 - - - - - - - - -

Other Formats:

Comma delimited format used in spreadsheet applications
http://www.bom.gov.au/fwo/IDW60701/IDW60701.94210.axf

JavaScript Object Notation format (JSON) in row-major order
http://www.bom.gov.au/fwo/IDW60701/IDW60701.94210.json